Time;durP1;ratioP1;P1;durP2;ratioP2;P2;SDS_P1;SDS_P2;PMS_P1;PMS_P2;Temp;Humidity;BMP_temperature;BMP_pressure;BME280_temperature;BME280_humidity;BME280_pressure;Samples;Min_cycle;Max_cycle;Signal;HPM_P1;HPM_P2
2023/01/22 00:02:04;;;;;;;;;26.50;25.25;;;;;-147.17;100.00;-15917.19;5008611;28;51057;-45
2023/01/22 00:04:30;;;;;;;;;47.75;41.75;;;;;-147.17;100.00;-15917.19;5004147;28;52200;-45
2023/01/22 00:06:56;;;;;;;;;45.75;39.50;;;;;-147.17;100.00;-15917.19;5002376;28;51307;-45
2023/01/22 00:09:21;;;;;;;;;36.50;35.75;;;;;-147.17;100.00;-15917.19;5001996;28;51360;-45
2023/01/22 00:11:48;;;;;;;;;41.00;35.00;;;;;-147.17;100.00;-15917.19;5007958;28;51344;-45
2023/01/22 00:14:13;;;;;;;;;38.50;34.25;;;;;-147.17;100.00;-15917.19;5005208;28;51235;-45
2023/01/22 00:16:40;;;;;;;;;53.75;42.50;;;;;-147.17;100.00;-15917.19;5002008;28;51187;-45
2023/01/22 00:19:06;;;;;;;;;36.25;33.00;;;;;-147.17;100.00;-15917.19;5002818;28;51143;-46
2023/01/22 00:21:31;;;;;;;;;40.75;34.25;;;;;-147.17;100.00;-15917.19;5002443;28;51280;-46
2023/01/22 00:23:56;;;;;;;;;18.00;17.25;;;;;-147.17;100.00;-15917.19;4990566;28;51937;-45
2023/01/22 00:26:22;;;;;;;;;41.75;37.25;;;;;-147.17;100.00;-15917.19;5000953;28;51273;-45
2023/01/22 00:28:47;;;;;;;;;53.25;43.25;;;;;-147.17;100.00;-15917.19;5003595;28;51119;-45
2023/01/22 00:31:14;;;;;;;;;30.50;26.25;;;;;-147.17;100.00;-15917.19;5007155;28;51559;-45
2023/01/22 00:33:41;;;;;;;;;36.75;35.00;;;;;-147.17;100.00;-15917.19;5006026;28;51234;-45
2023/01/22 00:36:10;;;;;;;;;42.00;35.00;;;;;-147.17;100.00;-15917.19;5008792;28;51123;-44
2023/01/22 00:38:35;;;;;;;;;37.00;31.50;;;;;-147.17;100.00;-15917.19;5007173;28;51074;-45
2023/01/22 00:41:02;;;;;;;;;37.00;37.00;;;;;-147.17;100.00;-15917.19;5007587;28;51050;-45
2023/01/22 00:43:28;;;;;;;;;39.75;34.75;;;;;-147.17;100.00;-15917.19;5009334;28;51965;-45
2023/01/22 00:45:54;;;;;;;;;36.75;34.50;;;;;-147.17;100.00;-15917.19;5006193;28;52986;-45
2023/01/22 00:48:19;;;;;;;;;52.75;42.75;;;;;-147.17;100.00;-15917.19;5011454;28;51463;-44
2023/01/22 00:50:45;;;;;;;;;42.75;38.00;;;;;-147.17;100.00;-15917.19;5000898;28;51417;-46
2023/01/22 00:53:10;;;;;;;;;31.75;29.25;;;;;-147.17;100.00;-15917.19;4989062;28;52714;-46
2023/01/22 00:55:35;;;;;;;;;32.25;31.25;;;;;-147.17;100.00;-15917.19;5007188;28;51121;-47
2023/01/22 00:58:01;;;;;;;;;47.75;42.75;;;;;-147.17;100.00;-15917.19;5012476;28;51272;-45
2023/01/22 01:00:26;;;;;;;;;35.75;34.25;;;;;-147.17;100.00;-15917.19;5006029;28;51129;-45
2023/01/22 01:05:35;;;;;;;;;28.50;25.75;;;;;-147.17;100.00;-15917.19;5000760;28;51294;-44
2023/01/22 01:08:01;;;;;;;;;40.00;35.25;;;;;-147.17;100.00;-15917.19;5006796;28;51232;-45
2023/01/22 01:10:26;;;;;;;;;46.25;40.00;;;;;-147.17;100.00;-15917.19;5006957;28;51147;-45
2023/01/22 01:12:51;;;;;;;;;42.75;38.50;;;;;-147.17;100.00;-15917.19;4986392;28;52741;-45
2023/01/22 01:15:17;;;;;;;;;52.75;45.00;;;;;-147.17;100.00;-15917.19;5003335;28;51157;-45
2023/01/22 01:17:42;;;;;;;;;39.50;35.00;;;;;-147.17;100.00;-15917.19;5008957;28;51144;-46
2023/01/22 01:20:08;;;;;;;;;53.25;41.75;;;;;-147.17;100.00;-15917.19;5007885;28;51028;-45
2023/01/22 01:22:34;;;;;;;;;41.75;32.25;;;;;-147.17;100.00;-15917.19;5007728;28;51907;-44
2023/01/22 01:24:59;;;;;;;;;49.00;42.00;;;;;-147.17;100.00;-15917.19;4996039;28;51214;-44
2023/01/22 01:27:25;;;;;;;;;35.75;32.50;;;;;-147.17;100.00;-15917.19;5003005;28;52417;-45
2023/01/22 01:29:50;;;;;;;;;43.25;35.50;;;;;-147.17;100.00;-15917.19;5006443;28;51358;-44
2023/01/22 01:32:15;;;;;;;;;43.00;38.25;;;;;-147.17;100.00;-15917.19;5007499;28;52209;-45
2023/01/22 01:34:40;;;;;;;;;39.00;32.25;;;;;-147.17;100.00;-15917.19;5005569;28;51067;-45
2023/01/22 01:37:06;;;;;;;;;37.50;32.25;;;;;-147.17;100.00;-15917.19;5009078;28;51634;-45
2023/01/22 01:39:31;;;;;;;;;44.75;41.25;;;;;-147.17;100.00;-15917.19;5007673;28;51387;-49
2023/01/22 01:41:56;;;;;;;;;35.75;32.25;;;;;-147.17;100.00;-15917.19;5001064;28;52305;-46
2023/01/22 01:44:23;;;;;;;;;44.50;41.50;;;;;-147.17;100.00;-15917.19;5003416;28;51189;-44
2023/01/22 01:47:00;;;;;;;;;45.50;38.50;;;;;-147.17;100.00;-15917.19;5008118;28;51305;-45
2023/01/22 01:49:37;;;;;;;;;44.00;37.75;;;;;-147.17;100.00;-15917.19;5010275;28;50955;-44
2023/01/22 01:52:08;;;;;;;;;42.25;38.25;;;;;-147.17;100.00;-15917.19;5006614;28;52745;-44
2023/01/22 01:54:33;;;;;;;;;41.75;38.50;;;;;-147.17;100.00;-15917.19;5007596;28;51248;-44
2023/01/22 01:57:18;;;;;;;;;50.25;41.75;;;;;-147.17;100.00;-15917.19;5011341;28;51489;-45
2023/01/22 01:59:46;;;;;;;;;41.00;39.00;;;;;-147.17;100.00;-15917.19;5011017;28;51141;-44
2023/01/22 02:02:12;;;;;;;;;46.00;38.25;;;;;-147.17;100.00;-15917.19;5010748;28;51187;-45
2023/01/22 02:04:38;;;;;;;;;33.00;28.75;;;;;-147.17;100.00;-15917.19;5011033;28;51215;-45
2023/01/22 02:07:04;;;;;;;;;54.00;42.00;;;;;-147.17;100.00;-15917.19;5008047;28;51195;-45
2023/01/22 02:09:30;;;;;;;;;44.50;41.50;;;;;-147.17;100.00;-15917.19;5013634;28;50919;-45
2023/01/22 02:11:56;;;;;;;;;50.00;42.50;;;;;-147.17;100.00;-15917.19;5009775;28;52023;-44
2023/01/22 02:14:28;;;;;;;;;46.00;42.75;;;;;-147.17;100.00;-15917.19;5004854;28;51383;-44
2023/01/22 02:17:11;;;;;;;;;42.50;40.50;;;;;-147.17;100.00;-15917.19;5010037;28;51141;-45
2023/01/22 02:19:38;;;;;;;;;39.25;34.75;;;;;-147.17;100.00;-15917.19;5009738;28;51063;-45
2023/01/22 02:22:26;;;;;;;;;43.00;37.50;;;;;-147.17;100.00;-15917.19;4989951;28;51263;-45
2023/01/22 02:24:51;;;;;;;;;46.25;40.75;;;;;-147.17;100.00;-15917.19;5007151;28;51155;-45
2023/01/22 02:27:17;;;;;;;;;48.00;39.50;;;;;-147.17;100.00;-15917.19;5011990;28;51337;-45
2023/01/22 02:29:43;;;;;;;;;51.25;42.00;;;;;-147.17;100.00;-15917.19;5011757;28;51400;-44
2023/01/22 02:32:09;;;;;;;;;46.25;41.50;;;;;-147.17;100.00;-15917.19;5001679;28;51723;-45
2023/01/22 02:34:34;;;;;;;;;50.25;41.75;;;;;-147.17;100.00;-15917.19;5009980;28;51003;-45
2023/01/22 02:37:00;;;;;;;;;52.75;44.25;;;;;-147.17;100.00;-15917.19;4989302;28;51799;-46
2023/01/22 02:39:25;;;;;;;;;38.50;36.75;;;;;-147.17;100.00;-15917.19;5008158;28;51254;-45
2023/01/22 02:41:51;;;;;;;;;48.25;42.00;;;;;-147.17;100.00;-15917.19;5011557;28;51172;-45
2023/01/22 02:44:16;;;;;;;;;53.25;43.00;;;;;-147.17;100.00;-15917.19;5009942;28;51094;-45
2023/01/22 02:46:42;;;;;;;;;56.50;46.50;;;;;-147.17;100.00;-15917.19;5011004;28;51639;-45
2023/01/22 02:49:07;;;;;;;;;44.25;41.25;;;;;-147.17;100.00;-15917.19;5010929;28;51203;-46
2023/01/22 02:51:33;;;;;;;;;54.25;44.50;;;;;-147.17;100.00;-15917.19;5010309;28;51862;-45
2023/01/22 02:53:59;;;;;;;;;50.00;45.50;;;;;-147.17;100.00;-15917.19;5011381;28;51651;-45
2023/01/22 02:56:24;;;;;;;;;30.50;30.25;;;;;-147.17;100.00;-15917.19;5009687;28;51385;-44
2023/01/22 02:58:50;;;;;;;;;47.75;42.00;;;;;-147.17;100.00;-15917.19;5012985;28;51431;-44
2023/01/22 03:01:21;;;;;;;;;50.25;43.25;;;;;-147.17;100.00;-15917.19;5007707;28;51341;-45
2023/01/22 03:04:09;;;;;;;;;49.25;45.50;;;;;-147.17;100.00;-15917.19;5011555;28;51079;-45
2023/01/22 03:06:36;;;;;;;;;53.75;45.25;;;;;-147.17;100.00;-15917.19;5011163;28;51267;-45
2023/01/22 03:09:02;;;;;;;;;51.25;45.50;;;;;-147.17;100.00;-15917.19;5012135;28;51233;-44
2023/01/22 03:11:29;;;;;;;;;46.00;43.50;;;;;-147.17;100.00;-15917.19;5009427;28;51768;-45
2023/01/22 03:22:09;;;;;;;;;63.25;49.50;;;;;-147.17;100.00;-15917.19;5009739;28;51098;-44
2023/01/22 03:24:35;;;;;;;;;53.75;46.00;;;;;-147.17;100.00;-15917.19;5011844;28;51057;-43
2023/01/22 03:27:01;;;;;;;;;50.50;42.75;;;;;-147.17;100.00;-15917.19;5008549;28;51147;-45
2023/01/22 03:29:26;;;;;;;;;49.75;42.75;;;;;-147.17;100.00;-15917.19;5011902;28;51125;-44
2023/01/22 03:31:52;;;;;;;;;59.50;45.25;;;;;-147.17;100.00;-15917.19;5010972;28;52042;-43
2023/01/22 03:34:19;;;;;;;;;56.75;45.50;;;;;-147.17;100.00;-15917.19;5008097;28;51048;-44
2023/01/22 03:36:45;;;;;;;;;53.75;47.50;;;;;-147.17;100.00;-15917.19;5010474;28;51088;-44
2023/01/22 03:39:11;;;;;;;;;49.25;42.75;;;;;-147.17;100.00;-15917.19;5004392;28;50994;-45
2023/01/22 03:41:37;;;;;;;;;51.75;43.50;;;;;-147.17;100.00;-15917.19;5010274;28;51865;-44
2023/01/22 03:44:03;;;;;;;;;57.25;45.50;;;;;-147.17;100.00;-15917.19;5011310;28;51032;-45
2023/01/22 03:46:29;;;;;;;;;53.00;45.00;;;;;-147.17;100.00;-15917.19;5010794;28;51330;-45
2023/01/22 03:48:55;;;;;;;;;49.25;43.25;;;;;-147.17;100.00;-15917.19;5011596;28;51038;-45
2023/01/22 03:51:21;;;;;;;;;50.75;42.00;;;;;-147.17;100.00;-15917.19;5011498;28;51037;-46
2023/01/22 03:53:47;;;;;;;;;39.75;30.00;;;;;-147.17;100.00;-15917.19;5012659;28;51334;-46
2023/01/22 03:56:18;;;;;;;;;55.25;43.75;;;;;-147.17;100.00;-15917.19;5009248;28;51177;-46
2023/01/22 03:58:44;;;;;;;;;44.25;42.00;;;;;-147.17;100.00;-15917.19;5012383;28;51036;-45
2023/01/22 04:01:12;;;;;;;;;45.00;34.75;;;;;-147.17;100.00;-15917.19;5008297;28;51200;-45
2023/01/22 04:03:38;;;;;;;;;33.50;31.00;;;;;-147.17;100.00;-15917.19;5011425;28;51089;-45
2023/01/22 04:06:04;;;;;;;;;25.75;22.50;;;;;-147.17;100.00;-15917.19;5010185;28;53538;-45
2023/01/22 04:08:32;;;;;;;;;40.75;35.50;;;;;-147.17;100.00;-15917.19;5010374;28;51066;-45
2023/01/22 04:10:59;;;;;;;;;40.00;36.00;;;;;-147.17;100.00;-15917.19;5006859;28;51383;-45
2023/01/22 04:13:26;;;;;;;;;40.25;37.00;;;;;-147.17;100.00;-15917.19;5009373;28;51000;-47
2023/01/22 04:15:52;;;;;;;;;42.50;40.00;;;;;-147.17;100.00;-15917.19;4988502;28;51207;-46
2023/01/22 04:18:18;;;;;;;;;40.75;30.75;;;;;-147.17;100.00;-15917.19;5006319;28;51122;-45
2023/01/22 04:20:44;;;;;;;;;37.25;33.00;;;;;-147.17;100.00;-15917.19;5007062;28;51905;-45
2023/01/22 04:23:10;;;;;;;;;45.75;42.00;;;;;-147.17;100.00;-15917.19;5009652;28;52881;-46
2023/01/22 04:25:35;;;;;;;;;40.75;32.00;;;;;-147.17;100.00;-15917.19;5005026;28;51288;-45
2023/01/22 04:28:02;;;;;;;;;41.00;32.00;;;;;-147.17;100.00;-15917.19;5007841;28;51255;-46
2023/01/22 04:30:27;;;;;;;;;36.00;31.50;;;;;-147.17;100.00;-15917.19;5000656;28;51984;-45
2023/01/22 04:32:52;;;;;;;;;38.75;33.50;;;;;-147.17;100.00;-15917.19;5011146;28;51040;-46
2023/01/22 04:35:18;;;;;;;;;36.75;34.50;;;;;-147.17;100.00;-15917.19;5006667;28;51346;-50
2023/01/22 04:37:43;;;;;;;;;47.25;37.50;;;;;-147.17;100.00;-15917.19;5000928;28;51111;-45
2023/01/22 04:40:10;;;;;;;;;38.75;33.25;;;;;-147.17;100.00;-15917.19;5001860;28;51873;-46
2023/01/22 04:42:35;;;;;;;;;35.00;31.00;;;;;-147.17;100.00;-15917.19;5010875;28;51413;-47
2023/01/22 04:45:01;;;;;;;;;41.00;36.25;;;;;-147.17;100.00;-15917.19;4991728;28;51162;-48
2023/01/22 04:47:26;;;;;;;;;39.00;35.75;;;;;-147.17;100.00;-15917.19;5011550;28;51264;-45
2023/01/22 04:49:52;;;;;;;;;37.50;35.00;;;;;-147.17;100.00;-15917.19;5009721;28;51138;-46
2023/01/22 04:52:17;;;;;;;;;34.00;31.50;;;;;-147.17;100.00;-15917.19;4992421;28;50934;-46
2023/01/22 04:54:43;;;;;;;;;40.00;32.75;;;;;-147.17;100.00;-15917.19;4990033;28;51196;-46
2023/01/22 04:57:09;;;;;;;;;38.25;34.00;;;;;-147.17;100.00;-15917.19;5008198;28;50862;-46
2023/01/22 04:59:34;;;;;;;;;28.50;27.50;;;;;-147.17;100.00;-15917.19;5008533;28;51240;-46
2023/01/22 05:02:00;;;;;;;;;31.25;24.50;;;;;-147.17;100.00;-15917.19;5009615;28;51008;-46
2023/01/22 05:04:25;;;;;;;;;37.50;30.50;;;;;-147.17;100.00;-15917.19;5009546;28;51205;-46
2023/01/22 05:06:51;;;;;;;;;43.50;35.25;;;;;-147.17;100.00;-15917.19;5010795;28;51175;-46
2023/01/22 05:09:16;;;;;;;;;35.50;30.75;;;;;-147.17;100.00;-15917.19;4993458;28;51113;-46
2023/01/22 05:11:42;;;;;;;;;36.75;31.75;;;;;-147.17;100.00;-15917.19;4990433;28;51303;-46
2023/01/22 05:14:07;;;;;;;;;26.75;26.00;;;;;-147.17;100.00;-15917.19;5008234;28;51361;-46
2023/01/22 05:16:32;;;;;;;;;34.25;32.25;;;;;-147.17;100.00;-15917.19;5008735;28;51267;-45
2023/01/22 05:18:58;;;;;;;;;35.00;31.25;;;;;-147.17;100.00;-15917.19;5010782;28;51237;-46
2023/01/22 05:21:24;;;;;;;;;38.25;33.25;;;;;-147.17;100.00;-15917.19;5007700;28;51395;-46
2023/01/22 05:23:49;;;;;;;;;39.25;33.50;;;;;-147.17;100.00;-15917.19;5009057;28;51103;-46
2023/01/22 05:26:14;;;;;;;;;35.25;32.00;;;;;-147.17;100.00;-15917.19;5005895;28;51300;-45
2023/01/22 05:28:40;;;;;;;;;35.50;31.25;;;;;-147.17;100.00;-15917.19;5007826;28;51931;-46
2023/01/22 05:31:05;;;;;;;;;37.25;33.00;;;;;-147.17;100.00;-15917.19;5011636;28;51027;-46
2023/01/22 05:33:32;;;;;;;;;40.00;35.25;;;;;-147.17;100.00;-15917.19;5013083;28;51260;-45
2023/01/22 05:35:59;;;;;;;;;26.75;24.75;;;;;-147.17;100.00;-15917.19;5011254;28;51383;-45
2023/01/22 05:38:26;;;;;;;;;37.00;32.75;;;;;-147.17;100.00;-15917.19;5013308;28;51163;-45
2023/01/22 05:40:51;;;;;;;;;38.75;32.50;;;;;-147.17;100.00;-15917.19;5013645;28;51196;-45
2023/01/22 05:43:17;;;;;;;;;34.50;31.75;;;;;-147.17;100.00;-15917.19;5013200;28;51273;-46
2023/01/22 05:45:42;;;;;;;;;31.00;26.50;;;;;-147.17;100.00;-15917.19;5008872;28;51330;-45
2023/01/22 05:48:08;;;;;;;;;37.75;32.00;;;;;-147.17;100.00;-15917.19;5014155;28;51184;-44
2023/01/22 05:50:33;;;;;;;;;32.75;28.50;;;;;-147.17;100.00;-15917.19;5011228;28;51156;-45
2023/01/22 05:52:58;;;;;;;;;39.00;33.50;;;;;-147.17;100.00;-15917.19;5013221;28;51137;-46
2023/01/22 05:55:24;;;;;;;;;40.25;33.50;;;;;-147.17;100.00;-15917.19;5012243;28;51288;-46
2023/01/22 05:57:49;;;;;;;;;42.50;32.00;;;;;-147.17;100.00;-15917.19;5013627;28;51139;-46
2023/01/22 06:00:15;;;;;;;;;36.25;29.25;;;;;-147.17;100.00;-15917.19;5010809;28;51197;-45
2023/01/22 06:02:40;;;;;;;;;38.25;33.25;;;;;-147.17;100.00;-15917.19;5010749;28;51245;-45
2023/01/22 06:05:07;;;;;;;;;31.00;27.50;;;;;-147.17;100.00;-15917.19;5012619;28;50905;-45
2023/01/22 06:07:32;;;;;;;;;35.25;29.50;;;;;-147.17;100.00;-15917.19;5015475;28;52876;-44
2023/01/22 06:09:58;;;;;;;;;40.25;36.50;;;;;-147.17;100.00;-15917.19;5013401;28;51013;-47
2023/01/22 06:12:23;;;;;;;;;38.00;33.75;;;;;-147.17;100.00;-15917.19;5013188;28;51117;-45
2023/01/22 06:14:49;;;;;;;;;34.00;28.00;;;;;-147.17;100.00;-15917.19;5014179;28;51327;-47
2023/01/22 06:17:15;;;;;;;;;34.25;31.25;;;;;-147.17;100.00;-15917.19;5012044;28;54404;-46
2023/01/22 06:19:41;;;;;;;;;28.50;25.00;;;;;-147.17;100.00;-15917.19;5012869;28;51326;-46
2023/01/22 06:22:06;;;;;;;;;34.75;32.75;;;;;-147.17;100.00;-15917.19;5010222;28;51877;-46
2023/01/22 06:24:31;;;;;;;;;36.00;32.00;;;;;-147.17;100.00;-15917.19;5011600;28;51057;-46
2023/01/22 06:26:57;;;;;;;;;29.75;26.75;;;;;-147.17;100.00;-15917.19;5011098;28;52050;-43
2023/01/22 06:29:22;;;;;;;;;38.25;32.75;;;;;-147.17;100.00;-15917.19;5013572;28;51056;-44
2023/01/22 06:31:47;;;;;;;;;25.75;23.00;;;;;-147.17;100.00;-15917.19;4991959;28;51213;-44
2023/01/22 06:34:13;;;;;;;;;45.25;38.00;;;;;-147.17;100.00;-15917.19;5012505;28;50976;-45
2023/01/22 06:36:38;;;;;;;;;39.50;32.75;;;;;-147.17;100.00;-15917.19;5011423;28;52084;-45
2023/01/22 06:39:04;;;;;;;;;38.50;34.75;;;;;-147.17;100.00;-15917.19;4995869;28;50992;-47
2023/01/22 06:41:29;;;;;;;;;41.00;35.50;;;;;-147.17;100.00;-15917.19;4993187;28;51358;-45
2023/01/22 06:43:54;;;;;;;;;37.75;32.50;;;;;-147.17;100.00;-15917.19;5013332;28;51332;-45
2023/01/22 06:46:20;;;;;;;;;42.25;39.25;;;;;-147.17;100.00;-15917.19;5010197;28;51014;-44
2023/01/22 06:48:45;;;;;;;;;36.00;33.00;;;;;-147.17;100.00;-15917.19;5014356;28;51009;-45
2023/01/22 06:51:11;;;;;;;;;42.75;35.75;;;;;-147.17;100.00;-15917.19;5011177;28;50997;-44
2023/01/22 06:53:37;;;;;;;;;32.75;32.50;;;;;-147.17;100.00;-15917.19;5014655;28;50956;-45
2023/01/22 06:56:03;;;;;;;;;39.25;33.75;;;;;-147.17;100.00;-15917.19;5009477;28;52470;-46
2023/01/22 06:58:28;;;;;;;;;37.25;33.50;;;;;-147.17;100.00;-15917.19;5012933;28;51143;-46
2023/01/22 07:00:54;;;;;;;;;43.00;32.00;;;;;-147.17;100.00;-15917.19;5010414;28;51135;-44
2023/01/22 07:03:20;;;;;;;;;36.75;32.50;;;;;-147.17;100.00;-15917.19;5006915;28;51217;-47
2023/01/22 07:05:45;;;;;;;;;47.00;40.25;;;;;-147.17;100.00;-15917.19;5001396;28;51809;-46
2023/01/22 07:08:14;;;;;;;;;25.00;22.25;;;;;-147.17;100.00;-15917.19;4997123;28;51080;-46
2023/01/22 07:10:40;;;;;;;;;34.50;31.00;;;;;-147.17;100.00;-15917.19;5004479;28;51044;-45
2023/01/22 07:13:07;;;;;;;;;31.75;31.75;;;;;-147.17;100.00;-15917.19;4988108;28;51331;-46
2023/01/22 07:15:33;;;;;;;;;31.25;29.00;;;;;-147.17;100.00;-15917.19;5006648;28;51052;-46
2023/01/22 07:17:58;;;;;;;;;44.25;35.00;;;;;-147.17;100.00;-15917.19;4999611;28;51088;-45
2023/01/22 07:20:23;;;;;;;;;36.25;32.50;;;;;-147.17;100.00;-15917.19;5007681;28;51301;-47
2023/01/22 07:22:50;;;;;;;;;38.75;32.25;;;;;-147.17;100.00;-15917.19;5013514;28;51032;-47
2023/01/22 07:25:15;;;;;;;;;36.25;30.50;;;;;-147.17;100.00;-15917.19;5011610;28;51176;-48
2023/01/22 07:27:41;;;;;;;;;36.25;29.50;;;;;-147.17;100.00;-15917.19;5009283;28;51169;-47
2023/01/22 07:30:07;;;;;;;;;34.00;29.00;;;;;-147.17;100.00;-15917.19;5008562;28;51633;-47
2023/01/22 07:32:32;;;;;;;;;47.50;34.25;;;;;-147.17;100.00;-15917.19;5002958;28;51462;-47
2023/01/22 07:34:57;;;;;;;;;34.50;32.50;;;;;-147.17;100.00;-15917.19;5005614;28;51860;-46
2023/01/22 07:37:23;;;;;;;;;34.25;29.50;;;;;-147.17;100.00;-15917.19;4996586;28;51103;-51
2023/01/22 07:39:48;;;;;;;;;41.25;35.00;;;;;-147.17;100.00;-15917.19;5009833;28;51010;-46
2023/01/22 07:42:13;;;;;;;;;40.25;31.50;;;;;-147.17;100.00;-15917.19;4999095;28;51157;-45
2023/01/22 07:44:41;;;;;;;;;35.75;30.75;;;;;-147.17;100.00;-15917.19;5007131;28;52672;-46
2023/01/22 07:47:08;;;;;;;;;38.75;30.25;;;;;-147.17;100.00;-15917.19;5005529;28;51340;-46
2023/01/22 07:49:33;;;;;;;;;29.50;28.25;;;;;-147.17;100.00;-15917.19;5011266;28;50885;-45
2023/01/22 07:51:59;;;;;;;;;32.25;29.25;;;;;-147.17;100.00;-15917.19;5006445;28;51262;-47
2023/01/22 07:54:24;;;;;;;;;38.00;30.50;;;;;-147.17;100.00;-15917.19;5009576;28;52115;-46
2023/01/22 07:56:50;;;;;;;;;35.50;29.75;;;;;-147.17;100.00;-15917.19;5008446;28;51167;-47
2023/01/22 07:59:15;;;;;;;;;31.75;27.75;;;;;-147.17;100.00;-15917.19;5012481;28;51410;-46
2023/01/22 08:01:40;;;;;;;;;29.75;27.50;;;;;-147.17;100.00;-15917.19;5001010;28;51402;-46
2023/01/22 08:04:06;;;;;;;;;21.75;20.50;;;;;-147.17;100.00;-15917.19;5001960;28;51127;-47
2023/01/22 08:06:31;;;;;;;;;47.50;35.25;;;;;-147.17;100.00;-15917.19;5001436;28;51215;-47
2023/01/22 08:08:58;;;;;;;;;40.25;35.25;;;;;-147.17;100.00;-15917.19;5007073;28;51373;-47
2023/01/22 08:11:24;;;;;;;;;41.75;36.00;;;;;-147.17;100.00;-15917.19;5004845;28;51050;-47
2023/01/22 08:13:50;;;;;;;;;35.50;31.00;;;;;-147.17;100.00;-15917.19;5001788;28;51319;-47
2023/01/22 08:16:16;;;;;;;;;39.00;32.50;;;;;-147.17;100.00;-15917.19;5005743;28;51267;-48
2023/01/22 08:18:41;;;;;;;;;35.50;29.75;;;;;-147.17;100.00;-15917.19;5010797;28;51153;-47
2023/01/22 08:21:06;;;;;;;;;39.00;32.00;;;;;-147.17;100.00;-15917.19;5005674;28;51243;-46
2023/01/22 08:23:32;;;;;;;;;32.25;25.75;;;;;-147.17;100.00;-15917.19;4997488;28;51435;-45
2023/01/22 08:26:02;;;;;;;;;30.00;28.75;;;;;-147.17;100.00;-15917.19;5001179;28;51041;-50
2023/01/22 08:28:30;;;;;;;;;32.25;28.75;;;;;-147.17;100.00;-15917.19;5007929;28;51181;-48
2023/01/22 08:31:00;;;;;;;;;36.50;31.25;;;;;-147.17;100.00;-15917.19;5006707;28;51038;-49
2023/01/22 08:33:26;;;;;;;;;33.25;33.00;;;;;-147.17;100.00;-15917.19;5007534;28;52992;-48
2023/01/22 08:35:51;;;;;;;;;43.50;39.00;;;;;-147.17;100.00;-15917.19;5007767;28;51090;-47
2023/01/22 08:38:17;;;;;;;;;35.50;32.00;;;;;-147.17;100.00;-15917.19;5004821;28;51515;-48
2023/01/22 08:40:42;;;;;;;;;29.25;29.00;;;;;-147.17;100.00;-15917.19;5018715;28;51135;-53
2023/01/22 08:43:07;;;;;;;;;31.00;31.00;;;;;-147.17;100.00;-15917.19;5001745;28;51221;-48
2023/01/22 08:45:33;;;;;;;;;34.00;30.25;;;;;-147.17;100.00;-15917.19;5009405;28;51482;-49
2023/01/22 08:47:59;;;;;;;;;34.50;30.50;;;;;-147.17;100.00;-15917.19;4990426;28;53630;-49
2023/01/22 08:50:25;;;;;;;;;28.50;23.75;;;;;-147.17;100.00;-15917.19;4996754;28;51192;-48
2023/01/22 08:52:51;;;;;;;;;39.75;30.75;;;;;-147.17;100.00;-15917.19;5006411;28;51809;-49
2023/01/22 08:55:16;;;;;;;;;31.50;29.50;;;;;-147.17;100.00;-15917.19;5007245;28;51196;-50
2023/01/22 08:57:42;;;;;;;;;32.25;31.25;;;;;-147.17;100.00;-15917.19;5007807;28;51027;-50
2023/01/22 09:00:08;;;;;;;;;38.75;31.25;;;;;-147.17;100.00;-15917.19;5006020;28;51121;-49
2023/01/22 09:02:33;;;;;;;;;32.50;29.75;;;;;-147.17;100.00;-15917.19;5007776;28;52467;-48
2023/01/22 09:04:58;;;;;;;;;32.50;28.25;;;;;-147.17;100.00;-15917.19;5005841;28;51444;-49
2023/01/22 09:07:24;;;;;;;;;34.25;30.50;;;;;-147.17;100.00;-15917.19;5005559;28;51458;-49
2023/01/22 09:09:49;;;;;;;;;34.75;25.50;;;;;-147.17;100.00;-15917.19;5001296;28;51223;-50
2023/01/22 09:12:15;;;;;;;;;35.25;32.25;;;;;-147.17;100.00;-15917.19;5006856;28;52055;-49
2023/01/22 09:14:40;;;;;;;;;22.75;22.75;;;;;-147.17;100.00;-15917.19;5010504;28;51165;-49
2023/01/22 09:17:05;;;;;;;;;30.25;28.50;;;;;-147.17;100.00;-15917.19;5007191;28;51253;-49
2023/01/22 09:19:31;;;;;;;;;30.50;28.50;;;;;-147.17;100.00;-15917.19;5007535;28;51164;-49
2023/01/22 09:21:56;;;;;;;;;34.00;31.25;;;;;-147.17;100.00;-15917.19;5005970;28;52314;-52
2023/01/22 09:24:22;;;;;;;;;36.75;30.00;;;;;-147.17;100.00;-15917.19;5011457;28;51107;-48
2023/01/22 09:26:47;;;;;;;;;32.75;29.00;;;;;-147.17;100.00;-15917.19;5009115;28;51223;-51
2023/01/22 09:29:12;;;;;;;;;34.00;30.50;;;;;-147.17;100.00;-15917.19;4990522;28;51138;-51
2023/01/22 09:31:38;;;;;;;;;36.75;32.75;;;;;-147.17;100.00;-15917.19;5008107;28;51184;-50
2023/01/22 09:34:04;;;;;;;;;32.00;30.75;;;;;-147.17;100.00;-15917.19;5009961;28;50942;-51
2023/01/22 09:36:31;;;;;;;;;39.50;35.00;;;;;-147.17;100.00;-15917.19;4993004;28;51067;-51
2023/01/22 09:38:56;;;;;;;;;21.75;21.25;;;;;-147.17;100.00;-15917.19;5012164;28;51197;-50
2023/01/22 09:41:33;;;;;;;;;34.75;30.75;;;;;-147.17;100.00;-15917.19;5011456;28;51916;-50
2023/01/22 09:44:00;;;;;;;;;27.00;26.25;;;;;-147.17;100.00;-15917.19;4975126;28;51107;-52
2023/01/22 09:46:32;;;;;;;;;38.50;34.75;;;;;-147.17;100.00;-15917.19;5000712;28;51040;-49
2023/01/22 09:49:07;;;;;;;;;34.50;31.25;;;;;-147.17;100.00;-15917.19;5011779;28;51081;-49
2023/01/22 09:51:33;;;;;;;;;28.25;21.75;;;;;-147.17;100.00;-15917.19;5010863;28;52077;-50
2023/01/22 09:54:01;;;;;;;;;30.50;27.25;;;;;-147.17;100.00;-15917.19;5011434;28;51042;-48
2023/01/22 09:56:48;;;;;;;;;33.50;29.25;;;;;-147.17;100.00;-15917.19;5011383;28;50974;-49
2023/01/22 09:59:17;;;;;;;;;27.25;24.00;;;;;-147.17;100.00;-15917.19;5011024;28;50943;-50
2023/01/22 10:01:51;;;;;;;;;36.00;29.25;;;;;-147.17;100.00;-15917.19;5009615;28;52483;-48
2023/01/22 10:04:31;;;;;;;;;27.75;27.25;;;;;-147.17;100.00;-15917.19;5011366;28;50995;-50
2023/01/22 10:07:00;;;;;;;;;32.75;30.50;;;;;-147.17;100.00;-15917.19;5010626;28;51111;-47
2023/01/22 10:09:29;;;;;;;;;34.00;30.75;;;;;-147.17;100.00;-15917.19;5011437;28;51208;-52
2023/01/22 10:11:56;;;;;;;;;32.50;30.75;;;;;-147.17;100.00;-15917.19;5010716;28;52877;-52
2023/01/22 10:14:26;;;;;;;;;32.00;27.50;;;;;-147.17;100.00;-15917.19;5017992;28;51254;-50
2023/01/22 10:16:52;;;;;;;;;27.50;27.25;;;;;-147.17;100.00;-15917.19;5012669;28;51019;-49
2023/01/22 10:19:25;;;;;;;;;34.25;30.75;;;;;-147.17;100.00;-15917.19;5013789;28;50902;-50
2023/01/22 10:22:01;;;;;;;;;39.00;35.50;;;;;-147.17;100.00;-15917.19;5013481;28;50972;-52
2023/01/22 10:24:28;;;;;;;;;32.25;24.75;;;;;-147.17;100.00;-15917.19;5014461;28;51185;-50
2023/01/22 10:26:54;;;;;;;;;31.25;25.75;;;;;-147.17;100.00;-15917.19;5014584;28;51027;-48
2023/01/22 10:29:22;;;;;;;;;29.75;27.50;;;;;-147.17;100.00;-15917.19;4999203;28;51227;-50
2023/01/22 10:31:52;;;;;;;;;29.00;24.25;;;;;-147.17;100.00;-15917.19;4999503;28;51086;-50
2023/01/22 10:34:35;;;;;;;;;30.75;27.25;;;;;-147.17;100.00;-15917.19;5014425;28;51172;-52
2023/01/22 10:37:16;;;;;;;;;28.25;26.00;;;;;-147.17;100.00;-15917.19;5014164;28;51114;-53
2023/01/22 10:39:46;;;;;;;;;25.50;22.75;;;;;-147.17;100.00;-15917.19;5014419;28;51356;-50
2023/01/22 10:42:20;;;;;;;;;28.50;26.25;;;;;-147.17;100.00;-15917.19;5013622;28;52007;-51
2023/01/22 10:44:46;;;;;;;;;28.75;26.50;;;;;-147.17;100.00;-15917.19;5014940;28;50959;-53
2023/01/22 10:47:21;;;;;;;;;29.50;25.75;;;;;-147.17;100.00;-15917.19;5017620;28;50908;-52
2023/01/22 10:49:48;;;;;;;;;30.00;29.00;;;;;-147.17;100.00;-15917.19;4996262;28;51555;-51
2023/01/22 10:52:37;;;;;;;;;27.75;24.75;;;;;-147.17;100.00;-15917.19;5013681;28;51905;-48
2023/01/22 10:55:03;;;;;;;;;31.25;30.50;;;;;-147.17;100.00;-15917.19;5003226;28;51046;-51
2023/01/22 10:57:32;;;;;;;;;26.50;24.00;;;;;-147.17;100.00;-15917.19;5013492;28;51292;-51